Date,TemperatureHighF,TemperatureAvgF,TemperatureLowF,DewpointHighF,DewpointAvgF,DewpointLowF,HumidityHigh,HumidityAvg,HumidityLow,PressureMaxIn,PressureMinIn,WindSpeedMaxMPH,WindSpeedAvgMPH,GustSpeedMaxMPH,PrecipitationSumIn
2013-1-1,21.2,6.4,-11.7,2.9,-9.2,-23.8,59,49,39,30.25,30.10,6,2,9,0.00
2013-1-2,28.2,18.2,8.6,10.9,5.1,-0.1,70,57,41,30.10,29.95,8,2,12,0.00
2013-1-3,29.3,18.8,7.7,16.1,9.6,-2.0,82,67,52,30.19,30.01,8,4,12,0.00
2013-1-4,34.9,21.3,8.1,14.6,8.1,-1.6,79,58,41,30.16,30.04,9,2,17,0.00
2013-1-5,39.0,23.7,4.5,25.6,13.6,-2.9,81,66,46,30.19,29.80,10,2,15,0.00
2013-1-6,31.3,19.9,6.4,16.3,8.9,-4.9,80,62,43,30.22,29.86,11,3,15,0.00
2013-1-7,41.0,28.5,6.6,23.5,15.0,-4.7,82,58,41,30.22,29.92,9,3,18,0.00
2013-1-8,40.1,28.8,9.3,28.2,19.1,4.7,83,68,50,30.04,29.83,12,3,22,0.06
2013-1-9,42.8,32.2,16.5,26.9,19.0,9.5,78,60,38,30.42,29.83,12,4,17,0.10
2013-1-10,41.4,27.7,12.6,34.4,18.7,7.0,98,72,39,30.45,29.77,9,2,13,0.31
2013-1-11,45.5,39.2,34.3,44.8,38.6,33.8,98,98,93,29.77,29.45,9,2,15,0.10
2013-1-12,47.7,29.4,15.8,43.2,16.9,1.7,93,60,44,29.98,29.45,13,5,28,0.00
2013-1-13,17.1,11.5,7.7,1.8,-3.4,-8.1,55,51,46,30.19,29.92,11,5,17,0.00
2013-1-14,24.8,13.3,3.9,5.9,-2.1,-11.4,60,50,43,30.39,30.16,9,2,18,0.00
2013-1-15,33.3,18.5,3.0,13.4,3.3,-8.1,73,52,40,30.36,29.95,6,2,8,0.00
2013-1-16,34.5,27.2,20.1,28.6,15.8,4.9,82,62,45,30.10,29.68,9,4,16,0.00
2013-1-17,27.1,17.7,8.8,5.7,0.5,-5.6,68,47,33,30.36,30.07,10,4,15,0.00
2013-1-18,47.3,31.4,9.5,28.2,18.5,0.4,73,60,43,30.36,29.74,13,4,22,0.00
2013-1-19,49.1,34.3,7.5,31.4,19.8,-9.4,80,57,36,30.04,29.59,22,6,32,0.00
2013-1-20,16.2,8.4,3.4,-3.6,-10.2,-14.5,45,42,37,30.30,30.04,16,6,30,0.00
2013-1-21,5.5,-1.1,-6.0,-14.6,-20.6,-25.1,38,38,38,30.25,30.13,12,6,23,0.00
2013-1-22,7.9,0.0,-8.9,-12.5,-19.6,-27.7,38,38,38,30.33,30.22,7,3,11,0.00
2013-1-23,21.4,10.2,-2.2,6.1,-5.9,-15.4,61,48,38,30.48,30.04,15,4,25,0.00
2013-1-24,12.2,4.4,-5.1,-0.5,-7.9,-16.8,56,56,56,30.66,30.25,8,4,10,0.00
2013-1-25,27.0,17.1,9.3,11.6,4.1,-4.8,78,57,43,30.27,29.89,11,4,17,0.00
2013-1-26,32.2,16.9,0.0,7.9,-0.5,-13.5,57,46,35,30.36,30.19,10,3,17,0.00
2013-1-27,32.0,28.0,23.2,31.5,19.2,5.9,98,72,48,30.25,29.77,11,5,19,0.00
2013-1-28,39.4,34.2,31.5,34.5,31.6,28.8,98,90,71,29.89,29.65,7,2,10,0.27
2013-1-29,46.8,37.9,33.1,46.2,36.9,31.1,98,96,89,29.68,29.45,10,4,14,0.69
2013-1-30,33.1,24.0,11.5,31.8,17.8,2.3,97,78,62,29.62,29.36,16,8,23,0.00
2013-1-31,15.3,7.5,-2.2,3.3,-6.0,-18.4,66,54,44,30.13,29.59,15,7,21,0.00
2013-2-1,12.0,1.4,-10.5,-5.3,-15.0,-26.0,45,45,45,30.27,30.04,9,3,20,0.00
2013-2-2,19.6,7.4,-2.6,-0.9,-10.1,-19.1,47,44,39,30.13,29.92,6,2,9,0.00
2013-2-3,24.6,13.5,3.2,4.4,-3.7,-13.9,57,46,41,30.01,29.89,14,3,21,0.00
2013-2-4,26.4,14.4,0.0,6.6,-3.7,-18.9,61,44,35,29.98,29.86,7,2,9,0.00
2013-2-5,33.3,18.7,-1.3,20.9,8.0,-19.8,82,63,40,30.07,29.68,10,3,16,0.00
2013-2-6,31.8,15.8,-8.0,25.6,6.2,-16.9,92,66,49,30.16,29.98,9,2,15,0.00
2013-2-7,34.3,29.2,25.5,30.4,25.4,17.6,90,86,71,30.13,29.92,12,3,18,0.00
2013-2-8,36.3,20.8,-1.3,19.0,6.6,-14.5,76,55,38,30.36,30.10,9,3,14,0.00
2013-2-9,30.0,18.5,-3.1,22.6,10.1,-16.0,94,70,53,30.33,29.98,14,5,22,0.00
2013-2-10,41.2,33.1,26.8,40.5,31.2,22.8,98,93,81,30.01,29.24,12,4,20,1.48
2013-2-11,35.2,29.3,21.9,34.5,22.5,12.8,98,76,60,29.98,29.24,14,7,24,0.06
2013-2-12,36.9,25.5,18.1,19.5,13.4,8.5,85,61,42,30.04,29.77,10,3,15,0.00
2013-2-13,47.5,30.7,11.7,31.4,19.8,7.5,94,67,38,29.80,29.57,6,1,8,0.00
2013-2-14,38.1,31.9,19.0,33.5,21.3,3.0,98,67,43,30.04,29.51,14,6,22,0.04
2013-2-15,29.5,16.1,5.4,5.9,-1.8,-9.8,54,45,35,30.19,30.04,11,4,15,0.00
2013-2-16,25.5,10.4,-6.7,1.8,-8.9,-25.9,52,41,36,30.19,30.10,10,3,14,0.00
2013-2-17,28.6,12.4,-11.2,14.2,-5.7,-29.8,61,44,37,30.16,29.80,10,4,19,0.00
2013-2-18,47.7,32.5,17.8,31.7,20.9,11.9,88,63,43,29.80,29.45,14,5,22,0.02
2013-2-19,17.8,10.6,4.5,12.4,-1.9,-12.7,79,58,44,30.19,29.57,18,9,27,0.00
2013-2-20,29.1,13.8,1.9,5.4,-4.2,-15.0,52,44,36,30.39,30.19,10,4,14,0.00
2013-2-21,23.4,16.7,6.3,21.4,5.7,-7.6,95,63,49,30.42,30.04,14,5,21,0.00
2013-2-22,38.7,27.0,21.9,22.1,18.8,16.0,93,72,48,30.04,29.74,12,4,17,0.00
2013-2-23,39.4,26.9,18.1,18.1,15.6,12.2,81,64,40,29.92,29.77,7,3,13,0.06
2013-2-24,50.2,27.3,10.0,24.2,13.8,5.9,87,60,34,30.10,29.89,4,1,8,0.07
2013-2-25,45.0,29.1,17.2,22.6,16.7,9.0,78,61,40,30.13,30.01,8,1,13,0.04
2013-2-26,37.4,30.2,19.6,23.2,20.9,13.5,90,69,51,30.01,29.71,15,7,22,0.00
2013-2-27,35.8,31.7,28.4,29.7,25.4,19.8,92,78,59,29.83,29.68,14,7,18,0.00
2013-2-28,34.0,30.7,26.1,25.9,18.9,10.6,81,62,48,30.13,29.83,14,6,18,0.00
2013-3-1,35.2,24.6,12.6,14.8,9.4,-0.4,73,53,40,30.27,30.10,10,4,14,0.00
2013-3-2,35.1,19.1,3.0,11.0,-1.2,-15.1,69,41,28,30.27,30.13,10,3,13,0.00
2013-3-3,42.3,18.6,-2.2,11.7,-5.9,-23.2,57,34,19,30.16,30.01,4,0,6,0.00
2013-3-4,32.2,23.3,10.8,18.1,8.1,-8.9,70,52,40,30.07,29.98,12,4,15,0.03
2013-3-5,32.5,26.9,24.3,23.7,20.8,17.8,90,78,63,30.13,29.92,10,5,15,0.00
2013-3-6,36.3,24.7,7.0,19.3,12.8,-3.0,77,61,43,30.30,30.13,10,4,15,0.00
2013-3-7,46.8,22.2,-1.5,19.4,5.4,-11.0,74,51,31,30.39,30.30,5,1,7,0.12
2013-3-8,44.1,27.8,6.1,21.8,13.4,-2.2,71,56,39,30.42,30.19,14,3,21,0.11
2013-3-9,41.0,36.1,30.0,37.8,30.4,21.4,98,80,62,30.19,29.68,12,5,20,0.58
2013-3-10,37.8,36.0,32.7,37.1,35.3,32.2,98,97,94,29.80,29.65,12,4,17,0.74
2013-3-11,35.4,31.2,27.1,32.2,27.1,21.1,98,85,73,29.74,29.57,9,1,11,0.03
2013-3-12,42.3,27.9,21.6,23.4,16.7,9.0,88,64,40,30.04,29.71,10,4,15,0.02
2013-3-13,35.8,23.8,13.1,13.8,6.4,-0.7,79,50,30,30.30,30.04,12,5,18,0.00
2013-3-14,44.8,25.4,9.7,25.1,14.3,-1.8,84,63,44,30.27,30.01,12,2,16,0.00
2013-3-15,39.7,32.4,26.6,32.4,28.0,22.4,98,84,69,30.01,29.77,9,2,13,0.02
2013-3-16,36.1,25.7,18.0,26.6,14.5,5.4,91,64,42,30.16,29.80,10,1,14,0.00
2013-3-17,33.8,22.8,10.8,11.5,5.7,-2.6,66,48,34,30.25,29.95,10,5,14,0.00
2013-3-18,38.1,23.0,14.0,26.9,14.4,3.5,83,70,53,29.95,29.51,14,4,22,0.00
2013-3-19,31.6,19.4,9.7,6.0,2.1,-3.7,65,48,33,30.04,29.68,16,8,25,0.00
2013-3-20,27.0,14.2,1.2,1.3,-5.2,-15.7,46,41,34,30.10,30.01,15,6,20,0.00
2013-3-21,36.0,16.5,-1.3,8.9,-4.0,-18.0,59,40,31,30.07,29.98,10,3,13,0.00
2013-3-22,47.7,25.0,2.5,15.3,2.6,-13.2,66,39,25,30.07,29.98,4,1,5,0.02
2013-3-23,53.6,32.3,12.6,21.0,11.4,3.3,72,44,26,30.13,29.98,6,1,7,0.06
2013-3-24,36.7,31.1,28.4,24.0,18.3,12.7,75,59,51,30.04,29.80,11,5,15,0.04
2013-3-25,37.8,31.2,21.2,20.7,15.4,11.2,75,52,43,30.13,29.86,12,7,16,0.02
2013-3-26,46.6,34.6,26.2,20.8,15.2,11.7,58,45,33,30.25,30.10,9,4,15,0.00
2013-3-27,53.6,36.7,22.8,21.5,15.8,9.9,59,44,27,30.30,30.22,7,2,9,0.00
2013-3-28,58.1,36.2,16.2,23.9,14.3,7.9,73,45,19,30.33,30.22,6,1,7,0.00
2013-3-29,57.6,37.6,17.4,25.8,16.9,10.2,77,47,22,30.33,30.16,6,1,8,0.00
2013-3-30,53.8,42.0,30.9,43.1,29.9,19.2,98,65,39,30.16,29.77,9,3,15,0.19
2013-3-31,48.0,37.3,29.3,38.7,26.8,9.5,98,69,40,29.92,29.68,18,5,25,0.02
2013-4-1,36.3,29.0,21.6,12.2,7.5,4.1,53,40,31,30.19,29.92,14,6,21,0.00
2013-4-2,41.9,30.0,19.0,15.2,9.0,3.8,64,42,29,30.30,30.16,12,4,21,0.00
2013-4-3,50.4,34.5,14.9,18.9,10.6,4.2,69,40,19,30.45,30.16,9,2,17,0.00
2013-4-4,56.7,43.8,33.8,29.5,21.0,13.2,52,40,31,30.22,29.92,10,4,17,0.00
2013-4-5,52.2,40.7,28.0,26.9,18.5,13.6,72,42,27,30.25,30.04,10,4,15,0.00
2013-4-6,58.6,45.0,34.3,49.1,28.7,13.2,94,55,37,30.04,29.48,16,6,26,0.23
2013-4-7,54.3,41.6,35.2,34.7,29.3,25.2,83,63,41,29.92,29.59,12,4,20,0.00
2013-4-8,55.9,43.4,36.9,38.2,33.7,30.5,93,70,47,29.98,29.68,7,3,9,0.00
2013-4-9,39.9,37.5,33.4,38.8,35.9,29.4,98,94,77,30.10,29.86,17,6,22,2.74
2013-4-10,34.9,33.2,31.6,33.2,30.6,25.2,98,91,69,30.10,29.89,12,2,18,0.82
2013-4-11,36.1,33.9,32.2,35.4,31.6,24.9,98,92,69,29.89,29.57,22,7,30,0.27
2013-4-12,42.1,34.0,30.7,33.0,29.3,25.9,98,83,62,29.77,29.51,8,2,15,0.27
2013-4-13,40.8,33.8,27.5,28.8,22.7,17.4,89,65,43,29.95,29.74,9,4,16,0.08
2013-4-14,41.7,34.1,26.8,37.4,30.1,20.2,96,85,71,29.98,29.57,14,5,20,0.83
2013-4-15,55.2,44.6,36.3,47.8,30.7,23.1,98,63,36,29.95,29.57,12,4,24,0.29
2013-4-16,53.6,40.6,30.4,27.8,24.4,20.6,78,55,33,30.27,29.92,9,3,13,0.00
2013-4-17,40.5,37.3,31.3,37.4,31.2,22.3,98,79,60,30.30,29.80,17,5,26,1.00
2013-4-18,42.4,40.0,35.6,41.6,39.2,33.0,98,97,88,29.80,29.27,11,4,20,0.54
2013-4-19,38.7,33.7,28.6,33.2,23.1,14.7,98,67,42,29.89,29.27,19,7,29,0.05
2013-4-20,49.1,35.6,20.3,24.8,13.0,5.0,79,43,19,30.30,29.89,11,3,15,0.00
2013-4-21,52.0,40.1,26.1,35.3,26.6,14.9,95,60,40,30.42,30.10,19,6,28,0.23
2013-4-22,52.9,48.1,44.6,48.2,42.5,34.8,97,81,57,30.16,29.92,9,2,20,0.27
2013-4-23,51.1,39.3,31.6,48.7,29.9,21.2,98,71,50,30.01,29.83,13,5,18,0.06
2013-4-24,57.0,42.3,26.4,35.8,22.6,17.5,87,50,27,30.04,29.89,10,3,16,0.08
2013-4-25,53.6,41.8,30.2,35.8,27.3,18.0,87,59,32,30.22,29.92,10,3,18,0.00
2013-4-26,72.9,56.3,30.2,41.3,32.1,20.6,76,42,25,30.19,30.04,13,4,17,0.00
2013-4-27,73.9,59.2,43.3,47.0,41.6,36.3,92,56,32,30.16,29.95,14,3,21,0.00
2013-4-28,77.7,58.6,36.7,49.8,37.8,33.3,96,53,22,29.95,29.68,12,2,17,0.00
2013-4-29,74.8,62.9,53.4,58.5,48.1,40.2,87,59,41,29.80,29.57,17,3,23,0.08
2013-4-30,84.4,69.5,55.4,57.6,48.9,36.8,92,51,29,29.59,28.44,24,6,24,0.11
2013-5-1,69.1,56.9,41.0,45.0,39.2,32.3,78,54,33,29.09,28.67,23,10,23,0.00
2013-5-2,41.0,37.4,32.5,36.5,32.2,29.3,96,82,68,29.20,29.09,21,11,21,0.50
2013-5-3,41.2,36.1,32.2,40.7,35.2,31.1,98,96,93,29.12,28.85,16,5,16,2.72
2013-5-4,72.7,56.9,41.0,50.4,45.7,40.5,98,70,41,28.88,28.76,12,4,12,0.00
2013-5-5,77.4,60.1,43.7,49.9,42.5,34.1,98,59,22,28.88,28.79,10,3,10,0.00
2013-5-6,82.6,62.5,41.0,50.6,38.2,25.2,92,50,14,28.91,28.76,12,2,12,0.00
2013-5-7,86.0,66.6,42.6,48.3,34.6,16.6,86,40,9,28.85,28.70,14,2,14,0.00
2013-5-8,87.3,60.8,43.0,48.0,41.1,34.9,82,54,19,28.82,28.67,7,1,7,0.00
2013-5-9,63.9,54.8,39.0,57.2,50.0,37.3,98,85,50,28.73,28.64,22,4,22,2.26
2013-5-10,52.7,39.7,31.3,37.4,31.9,29.1,98,76,44,28.85,28.70,18,6,18,0.05
2013-5-11,44.4,37.4,31.3,37.6,21.2,10.0,98,56,29,28.91,28.58,28,10,28,0.03
2013-5-12,47.1,35.4,22.5,14.6,10.2,5.0,61,37,20,29.00,28.88,18,8,18,0.00
2013-5-13,48.9,29.8,16.5,23.4,15.1,8.7,79,57,32,29.00,28.61,18,2,18,0.00
2013-5-14,83.5,65.2,45.1,43.4,34.3,23.7,63,35,17,28.61,28.23,28,6,28,0.00
2013-5-15,68.7,58.6,39.7,38.4,29.2,22.7,72,35,21,28.64,28.32,16,6,20,0.00
2013-5-16,80.1,60.4,36.0,40.3,32.4,26.0,84,42,15,28.73,28.58,14,3,14,0.00
2013-5-17,52.7,44.7,37.8,45.6,33.4,19.4,98,69,31,28.88,28.70,14,6,14,0.75
2013-5-18,74.5,56.4,39.2,50.6,43.8,36.2,92,66,41,28.85,28.64,16,4,16,0.00
2013-5-19,76.5,62.4,50.0,53.4,48.7,41.2,94,64,34,28.70,28.38,33,6,33,0.00
2013-5-20,72.1,61.0,51.8,51.8,47.2,40.0,98,65,33,28.53,28.32,30,6,30,0.51
2013-5-21,66.4,55.2,45.9,54.1,46.8,39.8,98,76,44,28.44,28.32,15,3,15,0.22
2013-5-22,52.0,47.8,42.3,49.7,46.4,41.7,98,95,86,28.64,28.41,17,3,17,1.72
2013-5-23,54.9,44.5,34.3,41.6,29.5,17.0,98,62,24,29.12,28.64,18,7,18,0.18
2013-5-24,59.4,43.5,23.7,32.9,24.4,19.2,90,52,24,29.29,29.06,15,2,15,0.00
2013-5-25,51.3,44.1,34.9,37.9,29.6,21.7,95,60,32,29.20,29.06,13,4,13,0.09
2013-5-26,55.4,44.8,34.5,41.9,31.5,22.3,84,62,31,29.12,28.94,16,4,16,0.09
2013-5-27,45.3,43.6,40.6,44.8,38.2,27.8,98,83,53,28.94,28.64,17,6,17,0.32
2013-5-28,56.7,46.6,40.6,50.2,44.6,40.1,98,93,73,28.67,28.47,10,3,10,0.08
2013-5-29,77.2,60.3,49.8,56.5,50.9,45.4,98,76,36,28.64,28.53,21,4,21,0.75
2013-5-30,73.9,60.7,52.7,59.8,54.3,45.6,98,81,39,28.61,28.38,28,9,28,0.18
2013-5-31,72.9,60.3,52.2,52.7,48.4,40.4,91,68,33,28.53,28.38,25,8,25,0.00
2013-6-1,69.4,54.5,43.7,50.7,41.8,36.6,91,65,31,28.53,28.41,18,4,18,0.00
2013-6-2,56.5,44.3,33.1,41.5,28.5,24.3,85,56,33,28.85,28.53,18,7,18,0.00
2013-6-3,66.9,49.6,27.3,39.7,30.2,25.3,95,54,24,28.91,28.76,9,2,9,0.00
2013-6-4,48.0,44.2,40.3,45.8,41.6,34.6,98,91,75,28.97,28.82,10,2,10,0.50
2013-6-5,49.5,44.6,40.6,48.1,43.4,39.9,98,96,85,28.91,28.70,13,4,13,0.71
2013-6-6,48.4,44.4,41.4,45.9,43.2,40.8,98,96,86,28.79,28.70,10,3,10,0.04
2013-6-7,66.7,50.7,40.3,41.7,38.7,31.8,98,68,31,28.82,28.70,8,2,8,0.00
2013-6-8,66.0,51.2,42.3,47.1,40.6,36.0,97,70,40,28.76,28.70,15,3,15,0.02
2013-6-9,48.9,48.6,48.4,41.5,41.3,40.5,76,76,74,28.76,28.76,1,0,0,0.10
2013-6-11,78.6,70.0,66.4,66.3,64.8,63.5,95,84,62,28.61,28.56,10,1,7,0.00
2013-6-12,83.8,69.1,60.8,67.9,64.4,59.1,98,86,50,28.67,28.44,15,4,15,0.74
2013-6-13,75.4,61.6,56.7,65.3,56.9,48.6,98,86,41,28.85,28.56,10,2,10,0.00
2013-6-14,81.0,68.5,52.3,59.2,51.6,46.2,96,59,33,28.94,28.70,17,4,17,0.00
2013-6-15,84.4,70.8,60.4,67.4,61.4,57.5,98,74,47,28.79,28.56,13,3,13,37.74
2013-6-16,88.9,74.1,58.5,68.2,52.5,39.9,98,56,21,28.70,28.64,15,3,15,0.00
2013-6-17,89.4,71.7,59.0,58.8,53.3,42.4,84,57,21,28.76,28.64,15,3,15,0.00
2013-6-18,78.3,66.3,52.0,57.7,47.1,41.5,84,53,31,28.88,28.73,12,5,12,0.00
2013-6-19,84.6,66.6,46.6,54.5,47.9,42.3,93,57,29,28.91,28.79,15,3,15,0.00
2013-6-20,88.7,74.3,55.6,59.7,54.3,49.7,93,55,28,28.91,28.76,21,4,21,0.00
2013-6-21,85.1,72.9,65.5,68.0,62.4,58.1,98,72,44,28.82,28.67,20,3,20,1.04
2013-6-22,86.4,72.2,64.8,69.8,66.1,60.7,98,83,47,28.88,28.64,18,3,23,0.82
2013-6-23,87.3,78.8,65.1,71.5,64.2,58.1,98,62,42,28.76,28.58,14,3,29,0.37
2013-6-24,85.3,73.1,65.7,69.8,64.9,60.2,97,77,51,28.76,28.61,11,1,17,0.00
2013-6-25,90.5,73.8,64.9,71.3,67.4,64.3,98,83,47,28.67,28.53,9,1,13,0.48
2013-6-26,89.6,78.0,69.3,71.7,68.6,62.5,98,76,43,28.56,28.47,11,2,17,0.00
2013-6-27,93.9,79.6,67.6,74.3,61.5,48.8,98,60,29,28.61,28.50,11,2,21,0.00
2013-6-28,78.6,70.0,62.4,65.3,57.9,51.7,91,67,43,28.56,28.41,12,4,17,0.14
2013-6-29,73.2,67.4,63.5,63.8,57.5,52.5,93,71,51,28.70,28.50,11,4,15,0.27
2013-6-30,79.3,70.5,56.5,53.1,50.6,44.9,84,52,38,28.85,28.67,9,3,12,0.00
2013-7-1,85.8,70.2,51.4,59.1,49.6,41.9,96,56,24,28.97,28.85,9,2,13,0.00
2013-7-2,82.6,68.2,53.4,61.1,51.8,44.6,95,61,32,28.94,28.82,9,2,10,0.00
2013-7-3,83.1,64.8,47.3,57.5,51.7,44.9,97,67,31,28.91,28.76,6,1,10,0.00
2013-7-4,88.9,71.8,54.0,61.9,54.4,49.3,98,61,29,28.85,28.76,12,2,17,0.00
2013-7-5,89.8,74.7,56.1,63.8,56.8,51.0,96,59,29,28.82,28.70,16,2,24,0.00
2013-7-6,91.0,77.4,65.5,63.1,60.0,56.1,85,58,33,28.79,28.70,11,2,18,0.00
2013-7-7,91.9,78.8,65.1,70.0,64.9,61.4,92,66,39,28.73,28.64,11,2,18,0.00
2013-7-8,96.6,81.3,72.0,72.8,68.7,63.8,91,68,39,28.76,28.64,6,2,10,0.00
2013-7-9,88.7,76.8,66.9,76.3,69.3,65.6,98,80,51,28.79,28.58,9,2,14,0.16
2013-7-10,82.4,73.1,57.7,68.2,54.3,45.8,86,55,31,28.82,28.61,12,4,18,0.00
2013-7-11,90.5,66.5,53.6,62.6,55.3,51.9,96,72,31,28.91,28.82,6,0,6,0.00
2013-7-12,85.8,70.6,54.7,64.9,54.8,48.1,97,64,30,28.91,28.82,20,4,20,0.00
2013-7-13,83.8,71.6,62.2,62.7,57.7,51.7,91,64,34,28.94,28.82,21,4,21,0.00
2013-7-14,90.5,75.1,56.5,66.4,60.0,54.0,98,65,31,29.03,28.94,17,3,17,0.00
2013-7-15,93.4,72.9,62.4,71.3,65.0,61.3,98,80,39,29.09,28.97,8,1,8,0.00
2013-7-16,99.0,87.6,69.6,75.5,69.0,63.9,97,57,36,29.06,29.00,13,3,13,0.00
2013-7-17,100.2,85.2,70.0,75.7,68.1,60.8,97,62,30,29.09,28.94,13,2,13,0.00
2013-7-18,99.0,84.9,70.2,74.9,67.8,63.0,95,61,34,28.97,28.64,13,3,13,0.00
2013-7-19,95.0,82.8,65.3,70.8,63.4,53.1,82,54,29,28.64,28.53,17,6,17,0.08
2013-7-20,90.5,73.7,57.7,65.2,58.3,52.9,96,63,31,28.73,28.61,8,2,8,0.00
2013-7-21,75.9,66.7,60.3,66.1,59.8,54.2,98,79,53,28.76,28.64,16,4,16,0.94
2013-7-22,89.2,72.8,57.9,71.6,62.8,57.1,98,74,45,28.67,28.41,22,3,22,0.01
2013-7-23,76.8,67.5,47.8,64.2,52.4,45.3,95,61,36,28.85,28.53,16,6,16,0.00
2013-7-24,82.4,69.9,47.7,57.0,49.6,42.8,98,53,30,28.88,28.73,8,2,8,0.00
2013-7-25,83.8,66.2,52.3,66.6,58.4,50.7,97,78,44,28.85,28.70,13,3,13,0.34
2013-7-26,81.0,68.5,56.5,67.3,57.7,46.0,98,72,34,28.76,28.64,20,6,20,0.02
2013-7-27,63.7,55.2,48.7,50.3,45.0,38.7,92,70,44,28.79,28.70,15,7,15,0.03
2013-7-28,69.6,58.8,49.6,53.4,48.9,45.4,98,72,44,28.85,28.64,15,6,15,0.03
2013-7-29,82.2,66.0,51.8,57.4,51.5,45.6,98,65,33,29.00,28.82,10,2,10,0.00
2013-7-30,82.8,66.9,53.2,65.3,55.9,51.2,98,72,38,29.00,28.85,15,3,15,0.00
2013-7-31,84.9,70.0,60.3,66.6,60.7,55.1,97,75,41,28.91,28.76,16,3,16,0.05
2013-8-1,83.3,68.4,55.5,61.7,53.8,44.9,98,66,30,28.88,28.67,15,3,15,0.02
2013-8-2,85.3,70.7,57.4,67.3,53.3,44.0,98,60,28,28.79,28.64,16,4,16,0.18
2013-8-3,81.7,65.8,49.1,59.6,47.7,40.5,96,58,26,29.00,28.79,13,3,13,0.00
2013-8-4,85.3,64.2,47.3,57.6,49.5,44.8,95,65,29,29.12,28.88,7,2,7,0.00
2013-8-5,75.3,63.2,51.3,65.5,59.2,48.9,98,88,60,28.91,28.64,8,2,17,0.14
2013-8-6,88.2,75.1,64.2,69.3,64.1,58.6,98,73,39,28.67,28.53,10,3,10,0.00
2013-8-7,80.4,68.7,58.1,67.0,57.2,50.5,98,69,42,28.85,28.53,22,5,22,0.00
2013-8-8,85.1,68.2,48.4,59.8,51.2,46.1,98,61,30,28.91,28.76,11,2,11,0.00
2013-8-9,83.8,69.8,57.7,62.4,55.2,46.1,90,64,30,28.91,28.76,14,4,14,0.00
2013-8-10,80.6,65.5,50.5,59.7,50.1,43.2,94,64,32,29.00,28.88,10,2,10,0.00
2013-8-11,75.0,64.2,52.7,65.5,59.9,49.5,98,87,66,28.97,28.88,9,2,9,0.49
2013-8-12,85.3,70.0,59.2,69.2,57.5,47.7,98,69,33,28.88,28.73,17,4,17,0.01
2013-8-13,75.9,63.2,49.3,55.7,47.0,39.4,94,60,31,29.03,28.85,10,4,10,0.00
2013-8-14,82.8,62.8,45.5,56.5,48.5,42.5,98,66,29,29.12,28.91,8,2,8,0.01
2013-8-15,84.4,66.1,50.7,60.2,51.1,42.5,95,66,25,28.97,28.88,10,2,10,0.01
2013-8-16,88.3,68.7,48.0,60.6,49.9,40.2,97,60,20,29.03,28.94,8,2,8,0.00
2013-8-17,89.2,68.3,49.5,59.9,51.1,45.6,97,62,24,29.12,28.97,13,2,13,0.00
2013-8-18,89.1,68.3,49.5,61.6,52.2,47.5,95,63,28,29.09,26.99,16,2,16,0.00
2013-8-19,87.4,69.1,52.3,62.3,56.3,50.6,94,68,37,28.97,28.82,13,2,13,0.00
2013-8-20,91.4,75.1,60.1,65.4,61.0,58.3,96,66,36,28.91,28.76,20,4,20,0.00
2013-8-21,92.7,79.0,67.6,71.3,65.7,61.8,96,66,41,28.85,28.73,17,4,17,0.00
2013-8-22,86.4,72.0,59.2,69.1,60.6,48.6,98,74,29,28.97,28.82,13,2,13,0.33
2013-8-23,86.7,71.1,54.7,64.3,54.5,48.3,98,63,29,29.03,28.94,16,3,16,0.00
2013-8-24,86.2,71.5,56.7,67.7,59.5,49.3,93,68,40,29.03,28.91,23,6,23,0.00
2013-8-25,93.7,82.5,72.3,69.6,66.4,63.2,84,61,38,29.00,28.88,18,6,18,0.00
2013-8-26,95.4,81.5,72.0,73.0,67.2,60.8,90,63,44,28.91,28.76,17,4,17,0.00
2013-8-27,97.7,84.2,74.8,73.3,69.4,65.2,90,64,37,28.76,28.61,13,3,13,0.00
2013-8-28,87.4,77.5,70.2,74.3,69.2,64.3,96,78,49,28.85,28.64,10,3,10,0.00
2013-8-29,91.4,76.6,61.9,71.7,66.9,61.3,98,75,45,28.91,28.73,15,3,15,0.00
2013-8-30,92.7,80.1,71.6,75.9,68.1,59.7,96,70,41,28.76,28.61,12,4,12,0.00
2013-8-31,89.2,74.1,62.2,63.9,60.3,53.3,95,67,31,28.73,28.58,9,3,9,0.00
2013-9-1,87.6,73.7,65.5,72.5,60.7,49.0,98,69,30,28.67,28.53,17,5,17,0.00
2013-9-2,74.5,62.7,48.7,58.3,51.3,44.5,93,69,38,28.85,28.64,14,5,14,0.00
2013-9-3,79.9,60.7,40.6,55.8,46.8,39.9,98,67,33,28.91,28.79,10,2,10,0.00
2013-9-4,91.8,68.8,46.4,62.8,54.3,44.5,96,67,29,28.94,28.82,9,2,9,0.00
2013-9-5,81.9,68.6,58.1,63.0,56.6,50.4,98,70,36,29.09,28.91,12,4,12,0.00
2013-9-6,91.4,73.3,56.5,61.7,54.8,45.1,95,56,31,29.00,28.73,13,4,13,0.00
2013-9-7,96.4,80.7,68.2,67.6,62.2,58.5,81,56,34,28.79,28.64,12,3,12,0.00
2013-9-8,72.3,68.3,62.2,67.0,60.1,54.4,94,76,56,28.91,28.73,14,6,14,0.00
2013-9-9,93.2,77.7,64.2,71.4,65.5,59.4,95,69,44,28.76,28.53,17,5,17,0.00
2013-9-10,94.8,82.7,69.4,64.2,59.7,56.1,69,47,29,28.79,28.58,15,4,15,0.00
2013-9-11,88.3,73.7,53.1,66.0,58.5,51.1,93,62,31,28.88,28.76,12,3,12,0.00
2013-9-12,73.0,63.6,53.1,58.3,47.5,38.6,98,59,33,29.00,28.76,17,7,17,0.00
2013-9-13,71.4,55.1,39.7,48.3,36.7,28.6,94,57,23,29.09,28.94,11,3,11,0.00
2013-9-14,77.7,57.3,34.9,51.7,39.1,32.0,91,57,25,28.97,28.76,14,3,14,0.01
2013-9-15,67.8,58.7,54.9,59.4,53.4,47.1,98,84,52,29.09,28.79,14,4,14,0.75
2013-9-16,68.7,55.4,40.6,47.4,38.6,33.0,87,57,28,29.26,29.09,12,4,12,0.00
2013-9-17,69.6,52.1,36.0,58.0,44.6,34.1,97,78,44,29.15,28.85,15,3,15,0.11
2013-9-18,81.0,68.5,59.5,68.2,60.4,56.8,93,77,49,28.85,28.61,20,6,20,0.04
2013-9-19,85.3,73.3,65.7,70.7,67.7,60.5,98,84,59,28.64,28.47,22,5,22,0.91
2013-9-20,69.3,63.4,51.8,66.7,56.1,47.0,98,79,47,28.67,28.53,15,5,15,0.33
2013-9-21,65.5,53.9,42.1,52.3,44.5,38.5,98,73,41,28.76,28.64,14,5,14,0.00
2013-9-22,68.2,52.6,36.0,49.3,41.1,35.5,98,70,38,28.91,28.76,12,2,12,0.00
2013-9-23,71.1,55.9,40.3,49.5,45.0,39.3,98,71,39,28.91,28.76,17,4,17,0.00
2013-9-24,74.7,56.4,39.2,54.7,44.0,38.1,98,69,31,28.88,28.73,14,2,14,0.00
2013-9-25,71.8,55.7,41.2,55.6,45.9,40.1,98,74,39,28.85,28.70,12,2,12,0.00
2013-9-26,76.3,56.0,41.7,58.0,47.7,40.6,98,78,38,28.88,28.76,15,3,15,0.01
2013-9-27,81.9,64.2,47.7,56.9,48.5,42.5,98,62,30,28.91,28.76,24,5,24,0.00
2013-9-28,79.3,61.6,50.7,66.0,53.5,48.0,98,77,44,28.82,28.56,36,7,36,0.43
2013-9-29,73.9,55.5,38.3,57.9,43.2,37.6,98,70,30,28.85,28.73,16,2,16,0.00
2013-9-30,72.5,58.6,41.5,49.1,42.4,36.1,98,60,28,28.73,28.53,29,6,29,0.01
2013-10-1,81.3,64.6,47.3,58.7,51.6,42.4,92,67,27,28.76,28.53,14,4,14,0.00
2013-10-2,77.5,58.0,39.2,52.1,40.3,31.5,98,61,20,28.91,28.67,13,2,13,0.00
2013-10-3,74.5,64.2,53.1,66.0,59.4,45.3,98,85,59,28.70,28.58,12,3,12,0.94
2013-10-4,60.6,59.3,57.9,60.1,58.8,57.4,98,98,98,28.79,28.64,16,5,16,0.23
2013-10-5,71.2,61.9,49.1,69.6,60.1,44.7,98,94,71,28.76,28.50,14,5,14,1.01
2013-10-6,64.8,50.0,36.7,52.0,39.6,31.6,98,72,34,28.56,28.47,13,2,13,0.01
2013-10-7,68.7,54.1,38.8,51.5,42.0,36.4,98,69,33,28.85,28.53,15,4,15,0.05
2013-10-8,76.6,57.5,35.8,51.7,40.2,35.0,98,59,25,28.91,28.79,21,4,21,0.00
2013-10-9,73.8,60.2,42.1,52.5,43.0,39.0,90,57,32,28.97,28.85,17,4,17,0.00
2013-10-10,74.5,54.5,37.2,52.3,41.9,36.2,98,69,31,29.00,28.76,16,3,16,0.00
2013-10-11,74.8,59.6,41.2,56.9,48.9,40.4,98,71,41,28.85,28.61,26,6,26,0.00
2013-10-12,68.4,60.3,38.7,56.5,43.3,28.4,80,56,33,28.97,28.58,21,6,21,0.00
2013-10-13,64.8,46.4,34.0,46.4,32.4,25.2,97,64,26,29.24,28.97,15,3,15,0.00
2013-10-14,62.2,47.0,29.7,43.6,35.1,27.4,95,67,39,29.26,28.91,16,4,16,0.00
2013-10-15,60.4,51.5,47.3,57.4,47.4,40.3,98,87,56,28.91,28.53,19,6,19,0.41
2013-10-16,50.9,48.2,38.5,48.2,45.4,35.8,98,90,77,28.76,28.53,12,4,12,0.04
2013-10-17,60.6,42.8,30.4,47.1,34.7,29.9,98,77,36,28.76,28.58,10,1,10,0.01
2013-10-18,50.7,43.5,35.1,43.2,37.0,30.1,96,79,48,28.73,28.58,17,4,17,0.01
2013-10-19,55.9,39.9,26.4,41.7,32.3,25.0,98,77,38,28.67,28.50,15,3,15,0.00
2013-10-20,48.4,39.8,29.5,43.1,36.1,28.5,98,87,71,28.61,28.44,17,4,17,0.04
2013-10-21,42.1,36.4,27.9,35.1,22.8,15.9,83,59,40,28.73,28.56,20,7,20,0.01
2013-10-22,48.6,35.1,23.2,29.5,22.9,18.1,86,63,38,28.79,28.70,12,4,12,0.00
2013-10-23,43.2,32.8,23.0,30.4,23.2,19.7,91,69,43,28.82,28.76,17,4,17,0.00
2013-10-24,46.4,36.4,29.7,23.5,20.6,17.7,69,54,36,29.09,28.82,17,6,17,0.01
2013-10-25,53.1,42.2,25.7,31.1,24.6,19.8,81,53,33,29.15,28.61,25,5,26,0.00
2013-10-26,50.4,45.5,35.4,34.7,26.3,21.3,72,48,36,28.88,28.53,21,8,21,0.00
2013-10-27,58.8,40.2,24.1,33.9,24.1,19.2,88,57,27,28.85,28.64,13,3,13,0.00
2013-10-28,43.0,38.4,34.0,29.6,24.4,20.9,81,58,44,29.20,28.85,15,6,15,0.00
2013-10-29,52.0,40.9,34.7,37.8,28.4,21.5,89,61,49,29.24,28.91,12,4,12,0.00
2013-10-30,54.1,49.8,41.5,53.6,47.2,37.8,98,91,81,28.91,28.50,15,4,15,0.00
2013-10-31,57.6,50.1,41.4,57.0,48.8,37.5,98,95,85,28.50,28.08,18,4,18,0.22
2013-11-1,48.0,42.7,36.9,41.5,37.5,31.2,98,83,64,28.56,28.11,15,6,15,0.00
2013-11-2,48.9,39.5,27.0,34.0,30.1,23.6,87,70,49,28.94,28.56,15,5,15,0.00
2013-11-3,51.8,38.5,21.7,34.3,26.2,19.5,91,65,37,29.06,28.88,26,6,27,0.00
2013-11-4,50.4,46.8,43.9,47.1,36.9,29.0,98,70,52,28.94,28.76,26,9,26,0.01
2013-11-5,48.9,43.5,32.9,47.7,41.6,32.3,98,94,60,29.06,28.58,10,2,10,1.14
2013-11-6,45.1,38.3,29.3,44.1,28.7,14.8,98,72,32,28.97,28.53,26,8,26,0.27
2013-11-7,42.3,31.8,23.4,31.4,24.2,20.0,89,74,50,29.03,28.94,13,3,13,0.00
2013-11-8,45.3,34.1,18.5,35.3,23.8,16.0,93,69,43,29.06,28.50,30,6,30,0.02
2013-11-9,49.6,44.2,37.2,38.7,30.7,20.3,77,59,44,28.91,28.47,30,11,30,0.01
2013-11-10,49.8,41.8,36.1,25.7,23.8,20.7,61,49,37,29.12,28.88,20,6,20,0.00
2013-11-11,42.3,29.5,19.8,33.3,17.1,5.4,98,61,43,29.41,28.85,20,8,20,0.04
2013-11-12,30.4,21.0,13.6,9.3,6.3,3.7,66,53,41,29.53,29.32,13,6,13,0.00
2013-11-13,46.0,32.3,16.9,22.4,13.0,6.6,69,46,34,29.32,28.79,17,5,17,0.01
2013-11-14,52.0,41.5,33.1,25.8,20.4,12.0,55,43,36,28.79,28.58,13,4,13,0.00
2013-11-15,57.2,41.4,24.6,35.1,27.1,18.8,82,59,36,28.70,28.58,12,2,12,0.00
2013-11-16,60.1,47.8,39.0,56.8,44.4,29.3,98,88,66,28.61,28.11,26,8,26,0.67
2013-11-17,55.0,46.8,36.0,54.5,42.8,24.9,98,86,62,28.50,27.99,29,9,29,0.22
2013-11-18,36.0,31.0,19.2,25.3,18.9,13.8,79,61,47,29.09,28.50,28,11,28,0.00
2013-11-19,42.3,29.9,16.2,24.8,18.1,12.2,87,64,39,29.15,28.94,24,6,24,0.00
2013-11-20,39.7,36.6,34.0,36.2,25.9,21.1,98,67,49,28.94,28.82,29,10,29,0.06
2013-11-21,42.1,37.5,31.1,38.2,35.0,28.2,98,91,76,29.12,28.85,15,4,15,0.01
2013-11-22,36.5,28.6,23.4,28.2,14.7,5.0,89,58,32,29.32,29.09,22,8,22,0.00
2013-11-23,23.2,14.8,5.9,13.5,-2.5,-11.4,67,46,38,29.50,29.24,25,9,25,0.00
2013-11-24,27.9,17.6,3.7,9.5,-3.6,-13.4,69,39,31,29.50,28.97,15,5,15,0.00
2013-11-25,36.5,29.6,23.2,24.0,16.6,-0.3,79,60,33,29.00,28.76,18,6,18,0.00
2013-11-26,34.5,24.0,11.7,20.0,6.8,-5.2,74,48,36,29.09,28.79,25,10,25,0.00
2013-11-27,27.7,18.6,9.3,8.0,1.5,-7.3,65,47,38,29.12,28.94,13,5,13,0.00
2013-11-28,31.1,24.4,14.5,10.1,7.2,3.2,61,48,41,29.32,28.88,16,6,16,0.00
2013-11-29,33.8,21.1,6.8,14.7,7.4,-3.8,79,56,41,29.38,29.03,23,5,23,0.00
2013-11-30,47.8,35.3,28.6,25.2,20.4,14.5,74,56,39,29.03,28.76,19,4,19,0.00
2013-12-1,43.2,32.1,23.0,26.7,20.9,14.4,83,64,41,28.97,28.73,9,2,9,0.00
2013-12-2,40.1,29.0,16.2,32.9,23.4,11.4,98,80,55,28.76,28.47,15,4,15,0.05
2013-12-3,34.9,33.8,33.1,34.4,33.3,32.6,98,98,98,28.56,28.44,15,6,15,0.23
2013-12-4,42.4,35.0,30.9,41.9,34.0,21.9,98,96,69,28.56,28.17,20,6,20,0.09
2013-12-5,30.9,17.0,6.4,22.4,3.8,-5.9,75,56,43,29.09,28.41,24,10,24,0.00
2013-12-6,13.6,6.9,2.5,0.8,-5.5,-9.7,56,56,56,29.38,29.06,15,7,15,0.00
2013-12-7,13.5,4.1,-3.3,0.7,-8.1,-15.1,56,56,56,29.50,29.35,13,4,13,0.00
2013-12-8,13.6,9.8,4.5,0.8,-2.8,-7.8,56,56,56,29.38,28.76,10,4,10,0.00
2013-12-9,21.9,6.9,-4.4,10.1,-8.0,-20.4,81,50,44,28.94,28.70,23,6,23,0.00
2013-12-10,19.6,7.8,-5.3,6.6,-9.1,-21.2,67,45,44,28.91,28.61,25,5,25,0.00
2013-12-11,8.1,7.6,-4.7,-9.4,-9.9,-21.1,44,44,44,29.26,28.91,5,0,5,0.00
2013-12-12,24.6,12.1,-4.4,7.1,-3.5,-20.8,67,49,41,29.24,28.94,14,4,14,0.00
2013-12-13,25.2,18.0,13.3,11.2,6.3,0.5,74,60,46,29.03,28.88,14,6,14,0.00
2013-12-14,25.3,17.8,12.2,13.3,9.0,0.7,79,68,55,29.03,28.73,15,5,15,0.00
2013-12-15,13.5,6.4,-2.6,4.9,-1.9,-10.5,68,68,68,28.94,28.73,18,8,18,0.00
2013-12-16,15.4,6.8,-7.8,13.5,-2.7,-15.5,92,65,44,28.94,28.76,14,3,14,0.00
2013-12-17,38.5,24.6,13.8,23.8,15.1,1.6,93,69,40,28.85,28.64,23,8,23,0.00
2013-12-18,37.6,22.8,0.3,25.0,9.1,-11.0,81,56,40,28.88,28.47,34,4,35,0.00
2013-12-19,29.5,24.6,18.1,25.6,18.1,12.7,98,77,58,28.79,28.53,18,6,18,0.00
2013-12-20,23.4,20.7,18.1,20.7,17.8,15.3,95,88,78,28.76,28.61,16,4,16,0.00
2013-12-21,27.3,24.2,21.6,25.4,22.2,18.7,98,92,80,28.70,28.58,10,4,11,0.00
2013-12-22,29.3,23.6,19.0,22.1,19.1,16.1,92,83,64,28.91,28.56,13,4,13,0.00
2013-12-23,21.7,8.0,-6.0,19.5,-3.5,-21.4,91,60,44,29.24,28.88,12,6,12,0.00
2013-12-24,14.4,0.9,-18.9,2.7,-13.3,-33.4,60,50,46,29.32,29.00,17,4,17,0.00
2013-12-25,25.3,17.2,7.9,20.1,8.1,-4.2,89,67,56,29.00,28.82,14,4,14,0.00
2013-12-26,30.4,19.8,10.6,17.4,11.2,4.2,82,70,51,28.97,28.88,8,2,9,0.00
2013-12-27,38.8,25.3,3.9,29.1,16.7,-0.1,83,71,53,29.03,28.73,17,3,17,0.06
2013-12-28,47.3,34.0,14.5,32.7,22.3,10.9,93,65,42,28.82,28.50,10,3,10,0.15
2013-12-29,38.5,13.9,-9.2,31.9,4.0,-21.0,96,65,53,29.06,28.50,23,11,23,0.03
2013-12-30,8.1,-3.3,-17.7,-4.8,-15.4,-29.0,55,55,55,29.12,28.94,8,2,8,0.00
2013-12-31,9.0,2.1,-5.4,-4.1,-10.4,-17.7,55,55,55,29.18,28.94,10,4,10,0.00
2014-1-1,10.2,2.5,-5.8,-2.8,-10.0,-17.8,55,55,55,29.24,29.12,10,5,10,0.00
2014-1-2,13.5,2.9,-14.8,0.1,-9.6,-26.3,55,55,55,29.24,29.09,15,5,15,0.00